createdAt,value
2023-01-29T00:02:10.378Z,100566.25
2023-01-29T00:04:37.373Z,100572.22
2023-01-29T00:07:04.325Z,100573.09
2023-01-29T00:09:32.100Z,100574.69
2023-01-29T00:11:59.064Z,100588.34
2023-01-29T00:14:27.634Z,100590.09
2023-01-29T00:16:55.054Z,100582.38
2023-01-29T00:19:22.016Z,100586.66
2023-01-29T00:21:48.931Z,100587.47
2023-01-29T00:24:15.875Z,100585.69
2023-01-29T00:26:43.280Z,100581.28
2023-01-29T00:29:10.267Z,100583.03
2023-01-29T00:31:37.439Z,100589.03
2023-01-29T00:34:04.401Z,100591.59
2023-01-29T00:36:31.375Z,100591.53
2023-01-29T00:39:02.876Z,100594.16
2023-01-29T00:41:50.479Z,100598.41
2023-01-29T00:44:36.825Z,100597.53
2023-01-29T00:47:04.758Z,100599.28
2023-01-29T00:49:31.802Z,100606.06
2023-01-29T00:52:17.248Z,100613.81
2023-01-29T00:54:44.129Z,100618.16
2023-01-29T00:57:11.204Z,100620.72
2023-01-29T00:59:38.303Z,100602.81
2023-01-29T01:02:23.807Z,100605.47
2023-01-29T01:04:50.802Z,100604.59
2023-01-29T01:07:17.788Z,100607.16
2023-01-29T01:10:03.244Z,100605.41
2023-01-29T01:12:30.321Z,100608.03
2023-01-29T01:14:57.965Z,100613.06
2023-01-29T01:17:25.216Z,100607.94
2023-01-29T01:19:52.169Z,100590.81
2023-01-29T01:22:19.985Z,100591.59
2023-01-29T01:24:46.873Z,100589.84
2023-01-29T01:27:14.241Z,100588.00
2023-01-29T01:29:41.121Z,100590.63
2023-01-29T01:32:08.232Z,100574.41
2023-01-29T01:34:35.847Z,100578.63
2023-01-29T01:37:02.918Z,100569.97
2023-01-29T01:39:30.038Z,100565.81
2023-01-29T01:41:57.051Z,100553.00
2023-01-29T01:44:56.278Z,100545.28
2023-01-29T01:47:50.291Z,100547.91
2023-01-29T01:50:38.499Z,100541.13
2023-01-29T01:53:09.575Z,100537.66
2023-01-29T01:55:39.441Z,100534.97
2023-01-29T01:58:12.872Z,100538.41
2023-01-29T02:00:40.180Z,100517.09
2023-01-29T02:03:26.058Z,100516.28
2023-01-29T02:06:13.425Z,100507.81
2023-01-29T02:09:34.874Z,100506.13
2023-01-29T02:12:06.690Z,100502.81
2023-01-29T02:14:38.917Z,100505.47
2023-01-29T02:17:11.588Z,100504.59
2023-01-29T02:19:54.227Z,100503.84
2023-01-29T02:22:42.967Z,100487.59
2023-01-29T02:25:48.893Z,100477.44
2023-01-29T02:28:31.804Z,100473.25
2023-01-29T02:31:06.101Z,100459.59
2023-01-29T02:33:39.358Z,100468.16
2023-01-29T02:36:29.473Z,100457.97
2023-01-29T02:39:15.181Z,100452.00
2023-01-29T02:42:01.358Z,100452.09
2023-01-29T02:44:31.240Z,100462.34
2023-01-29T02:47:18.115Z,100464.91
2023-01-29T02:50:03.791Z,100456.34
2023-01-29T02:52:50.907Z,100453.69
2023-01-29T02:55:22.892Z,100453.78
2023-01-29T02:57:54.194Z,100457.22
2023-01-29T03:00:22.897Z,100454.66
2023-01-29T03:03:09.362Z,100452.09
2023-01-29T03:06:08.055Z,100460.75
2023-01-29T03:08:45.566Z,100467.56
2023-01-29T03:11:15.287Z,100465.00
2023-01-29T03:13:56.936Z,100468.44
2023-01-29T03:16:30.466Z,100456.47
2023-01-29T03:19:02.552Z,100447.09
2023-01-29T03:21:53.404Z,100450.47
2023-01-29T03:25:17.694Z,100446.22
2023-01-29T03:28:10.049Z,100444.59
2023-01-29T03:31:06.687Z,100436.03
2023-01-29T03:33:55.005Z,100429.09
2023-01-29T03:36:37.909Z,100423.88
2023-01-29T03:39:09.131Z,100424.66
2023-01-29T03:41:40.096Z,100416.97
2023-01-29T03:44:34.545Z,100427.34
2023-01-29T03:47:15.144Z,100423.13
2023-01-29T03:49:56.698Z,100426.56
2023-01-29T03:52:29.278Z,100419.78
2023-01-29T03:55:19.391Z,100420.69
2023-01-29T03:58:06.554Z,100400.28
2023-01-29T04:00:53.095Z,100401.16
2023-01-29T04:03:30.510Z,100402.97
2023-01-29T04:06:09.744Z,100397.97
2023-01-29T04:09:20.400Z,100389.50
2023-01-29T04:11:50.913Z,100393.03
2023-01-29T04:14:19.129Z,100384.63
2023-01-29T04:16:53.799Z,100389.78
2023-01-29T04:19:41.320Z,100383.81
2023-01-29T04:22:31.804Z,100384.63
2023-01-29T04:25:02.797Z,100383.78
2023-01-29T04:27:59.392Z,100368.47
2023-01-29T04:30:52.850Z,100384.84
2023-01-29T04:33:26.182Z,100373.75
2023-01-29T04:36:18.194Z,100366.88
2023-01-29T04:38:52.120Z,100378.25
2023-01-29T04:41:34.431Z,100371.44
2023-01-29T04:44:32.379Z,100374.81
2023-01-29T04:47:18.331Z,100359.41
2023-01-29T04:50:06.841Z,100360.19
2023-01-29T04:52:55.043Z,100367.94
2023-01-29T04:55:32.773Z,100368.88
2023-01-29T04:58:19.935Z,100355.22
2023-01-29T05:00:49.363Z,100340.69
2023-01-29T05:03:16.907Z,100332.16
2023-01-29T05:05:46.601Z,100330.44
2023-01-29T05:08:16.380Z,100331.25
2023-01-29T05:10:43.508Z,100334.69
2023-01-29T05:13:13.543Z,100338.97
2023-01-29T05:16:06.924Z,100329.56
2023-01-29T05:18:34.088Z,100334.78
2023-01-29T05:21:04.392Z,100330.50
2023-01-29T05:23:31.376Z,100325.34
2023-01-29T05:25:58.285Z,100322.81
2023-01-29T05:28:25.326Z,100322.81
2023-01-29T05:30:55.210Z,100315.09
2023-01-29T05:33:31.946Z,100317.59
2023-01-29T05:35:59.865Z,100310.75
2023-01-29T05:38:26.864Z,100312.50
2023-01-29T05:40:54.511Z,100315.09
2023-01-29T05:43:25.085Z,100315.06
2023-01-29T05:46:00.167Z,100315.94
2023-01-29T05:48:32.502Z,100304.91
2023-01-29T05:51:03.777Z,100300.69
2023-01-29T05:53:31.269Z,100299.03
2023-01-29T05:56:01.596Z,100298.16
2023-01-29T05:58:30.206Z,100307.69
2023-01-29T06:00:57.054Z,100297.53
2023-01-29T06:03:23.950Z,100302.69
2023-01-29T06:05:50.803Z,100300.97
2023-01-29T06:08:17.755Z,100302.75
2023-01-29T06:10:44.597Z,100301.03
2023-01-29T06:13:11.593Z,100299.44
2023-01-29T06:15:41.283Z,100301.13
2023-01-29T06:18:08.495Z,100301.19
2023-01-29T06:20:35.645Z,100285.84
2023-01-29T06:23:02.617Z,100292.78
2023-01-29T06:25:29.509Z,100295.38
2023-01-29T06:27:59.321Z,100293.75
2023-01-29T06:30:28.242Z,100287.81
2023-01-29T06:32:59.081Z,100292.97
2023-01-29T06:35:26.212Z,100299.81
2023-01-29T06:37:53.242Z,100299.78
2023-01-29T06:40:20.275Z,100292.97
2023-01-29T06:42:47.196Z,100298.19
2023-01-29T06:45:14.257Z,100293.97
2023-01-29T06:47:41.363Z,100293.06
2023-01-29T06:50:08.936Z,100282.84
2023-01-29T06:52:35.838Z,100277.00
2023-01-29T06:55:02.816Z,100281.25
2023-01-29T06:57:30.254Z,100275.34
2023-01-29T06:59:57.126Z,100282.19
2023-01-29T07:02:24.233Z,100271.16
2023-01-29T07:04:51.212Z,100272.13
2023-01-29T07:07:18.581Z,100269.66
2023-01-29T07:09:45.601Z,100260.22
2023-01-29T07:12:12.481Z,100266.25
2023-01-29T07:14:39.424Z,100261.16
2023-01-29T07:17:06.326Z,100270.66
2023-01-29T07:19:33.287Z,100266.41
2023-01-29T07:22:02.669Z,100268.22
2023-01-29T07:24:29.794Z,100266.59
2023-01-29T07:26:56.964Z,100267.53
2023-01-29T07:29:23.829Z,100252.97
2023-01-29T07:31:51.006Z,100249.56
2023-01-29T07:34:17.984Z,100247.00
2023-01-29T07:36:44.936Z,100250.50
2023-01-29T07:39:11.902Z,100248.84
2023-01-29T07:41:38.971Z,100239.50
2023-01-29T07:44:15.669Z,100234.41
2023-01-29T07:46:42.653Z,100236.16
2023-01-29T07:49:09.611Z,100231.13
2023-01-29T07:51:36.605Z,100236.41
2023-01-29T07:54:03.567Z,100235.59
2023-01-29T07:56:30.530Z,100234.75
2023-01-29T07:58:57.616Z,100219.41
2023-01-29T08:01:24.671Z,100223.72
2023-01-29T08:03:51.697Z,100224.69
2023-01-29T08:06:19.390Z,100235.88
2023-01-29T08:08:46.399Z,100231.56
2023-01-29T08:11:13.564Z,100234.16
2023-01-29T08:13:40.501Z,100230.75
2023-01-29T08:16:08.280Z,100217.13
2023-01-29T08:18:39.090Z,100225.72
2023-01-29T08:21:06.185Z,100223.16
2023-01-29T08:23:33.117Z,100228.38
2023-01-29T08:26:00.257Z,100224.09
2023-01-29T08:28:27.389Z,100228.38
2023-01-29T08:30:54.887Z,100229.25
2023-01-29T08:33:29.936Z,100215.63
2023-01-29T08:36:04.413Z,100231.16
2023-01-29T08:38:31.473Z,100216.69
2023-01-29T08:40:58.589Z,100216.81
2023-01-29T08:43:25.687Z,100217.69
2023-01-29T08:45:52.779Z,100231.44
2023-01-29T08:48:19.873Z,100225.41
2023-01-29T08:50:46.687Z,100228.00
2023-01-29T08:53:13.619Z,100231.44
2023-01-29T08:55:41.084Z,100225.31
2023-01-29T08:58:10.116Z,100220.16
2023-01-29T09:00:37.076Z,100218.44
2023-01-29T09:03:04.505Z,100205.59
2023-01-29T09:05:31.547Z,100209.00
2023-01-29T09:07:58.787Z,100199.59
2023-01-29T09:10:26.546Z,100197.00
2023-01-29T09:12:53.445Z,100193.56
2023-01-29T09:15:20.630Z,100192.81
2023-01-29T09:17:49.648Z,100198.88
2023-01-29T09:20:17.118Z,100192.91
2023-01-29T09:22:44.406Z,100213.50
2023-01-29T09:25:12.009Z,100216.94
2023-01-29T09:27:39.404Z,100206.59
2023-01-29T09:30:07.069Z,100220.38
2023-01-29T09:32:55.438Z,100221.16
2023-01-29T09:35:23.360Z,100216.06
2023-01-29T09:37:51.238Z,100208.28
2023-01-29T09:40:31.698Z,100211.69
2023-01-29T09:43:18.155Z,100218.56
2023-01-29T09:46:15.389Z,100207.44
2023-01-29T09:48:42.571Z,100206.66
2023-01-29T09:51:16.142Z,100198.06
2023-01-29T09:53:49.738Z,100205.78
2023-01-29T09:56:21.042Z,100193.72
2023-01-29T09:58:48.469Z,100199.72
2023-01-29T10:01:30.816Z,100186.88
2023-01-29T10:04:26.573Z,100184.28
2023-01-29T10:07:46.412Z,100181.66
2023-01-29T10:10:28.020Z,100177.44
2023-01-29T10:13:11.759Z,100186.00
2023-01-29T10:15:45.575Z,100183.44
2023-01-29T10:18:26.819Z,100179.16
2023-01-29T10:20:53.925Z,100180.06
2023-01-29T10:24:12.034Z,100175.72
2023-01-29T10:26:40.895Z,100163.72
2023-01-29T10:29:08.644Z,100154.38
2023-01-29T10:31:39.986Z,100160.41
2023-01-29T10:34:25.133Z,100153.66
2023-01-29T10:36:52.178Z,100144.47
2023-01-29T10:39:21.484Z,100147.16
2023-01-29T10:42:13.230Z,100142.06
2023-01-29T10:45:01.546Z,100132.72
2023-01-29T10:47:45.513Z,100125.88
2023-01-29T10:50:32.836Z,100133.78
2023-01-29T10:53:33.693Z,100126.16
2023-01-29T10:56:22.375Z,100110.78
2023-01-29T10:58:52.607Z,100107.53
2023-01-29T11:01:19.632Z,100105.09
2023-01-29T11:03:46.702Z,100109.28
2023-01-29T11:06:19.712Z,100103.28
2023-01-29T11:09:10.048Z,100099.84
2023-01-29T11:11:57.227Z,100095.56
2023-01-29T11:14:39.218Z,100090.47
2023-01-29T11:17:06.115Z,100090.66
2023-01-29T11:19:41.686Z,100069.81
2023-01-29T11:22:16.675Z,100073.22
2023-01-29T11:24:44.356Z,100074.09
2023-01-29T11:27:29.754Z,100068.94
2023-01-29T11:29:56.739Z,100078.41
2023-01-29T11:32:29.719Z,100080.84
2023-01-29T11:35:15.489Z,100069.72
2023-01-29T11:37:45.010Z,100051.78
2023-01-29T11:40:24.302Z,100057.81
2023-01-29T11:42:54.252Z,100052.63
2023-01-29T11:45:25.925Z,100054.28
2023-01-29T11:47:54.419Z,100055.13
2023-01-29T11:50:24.538Z,100055.97
2023-01-29T11:52:51.825Z,100064.63
2023-01-29T11:55:50.145Z,100057.88
2023-01-29T11:58:23.637Z,100051.97
2023-01-29T12:00:52.078Z,100051.06
2023-01-29T12:03:27.514Z,100051.97
2023-01-29T12:06:01.031Z,100051.06
2023-01-29T12:08:34.650Z,100054.47
2023-01-29T12:11:17.133Z,100054.47
2023-01-29T12:13:44.041Z,100039.84
2023-01-29T12:16:18.333Z,100032.06
2023-01-29T12:18:51.368Z,100035.47
2023-01-29T12:21:35.530Z,100032.13
2023-01-29T12:24:08.501Z,100020.13
2023-01-29T12:26:46.904Z,100019.25
2023-01-29T12:29:43.108Z,100007.25
2023-01-29T12:32:15.319Z,100008.88
2023-01-29T12:34:58.299Z,100014.78
2023-01-29T12:37:34.611Z,99996.75
2023-01-29T12:40:02.340Z,99998.50
2023-01-29T12:42:30.067Z,99977.91
2023-01-29T12:45:02.020Z,99980.47
2023-01-29T12:47:49.006Z,99989.91
2023-01-29T12:50:22.217Z,99977.03
2023-01-29T12:53:07.435Z,99975.41
2023-01-29T12:55:42.085Z,99978.75
2023-01-29T12:58:15.086Z,99971.03
2023-01-29T13:00:47.281Z,99966.72
2023-01-29T13:03:23.516Z,99971.88
2023-01-29T13:06:01.094Z,99961.66
2023-01-29T13:08:32.460Z,99959.91
2023-01-29T13:11:02.335Z,99962.44
2023-01-29T13:13:39.032Z,99971.81
2023-01-29T13:16:10.364Z,99968.25
2023-01-29T13:18:46.959Z,99967.34
2023-01-29T13:21:17.867Z,99950.13
2023-01-29T13:23:58.280Z,99960.38
2023-01-29T13:26:26.734Z,99962.97
2023-01-29T13:28:53.913Z,99969.75
2023-01-29T13:31:32.114Z,99955.16
2023-01-29T13:34:01.742Z,99942.22
2023-01-29T13:36:30.370Z,99952.56
2023-01-29T13:39:00.590Z,99949.13
2023-01-29T13:41:54.074Z,99938.78
2023-01-29T13:44:38.322Z,99933.69
2023-01-29T13:47:11.348Z,99946.59
2023-01-29T13:49:39.191Z,99942.41
2023-01-29T13:52:44.637Z,99941.56
2023-01-29T13:55:14.489Z,99940.66
2023-01-29T13:57:44.649Z,99927.72
2023-01-29T14:00:17.386Z,99941.38
2023-01-29T14:02:44.551Z,99943.91
2023-01-29T14:05:30.014Z,99946.47
2023-01-29T14:08:02.041Z,99936.97
2023-01-29T14:10:33.687Z,99934.38
2023-01-29T14:13:18.583Z,99936.88
2023-01-29T14:16:05.911Z,99935.16
2023-01-29T14:18:34.769Z,99921.44
2023-01-29T14:21:20.810Z,99916.28
2023-01-29T14:23:55.288Z,99927.44
2023-01-29T14:26:28.338Z,99937.78
2023-01-29T14:29:00.883Z,99928.28
2023-01-29T14:31:30.149Z,99917.19
2023-01-29T14:34:01.963Z,99912.84
2023-01-29T14:36:28.947Z,99920.69
2023-01-29T14:38:59.325Z,99899.28
2023-01-29T14:41:31.776Z,99911.28
2023-01-29T14:44:36.314Z,99907.81
2023-01-29T14:47:04.832Z,99908.66
2023-01-29T14:49:54.298Z,99903.50
2023-01-29T14:52:28.800Z,99906.09
2023-01-29T14:55:00.286Z,99898.34
2023-01-29T14:57:29.223Z,99896.63
2023-01-29T14:59:59.215Z,99896.66
2023-01-29T15:02:37.206Z,99901.78
2023-01-29T15:05:08.981Z,99888.00
2023-01-29T15:07:52.083Z,99888.84
2023-01-29T15:10:27.640Z,99890.56
2023-01-29T15:13:03.753Z,99878.59
2023-01-29T15:15:33.700Z,99863.94
2023-01-29T15:18:31.531Z,99863.00
2023-01-29T15:21:12.098Z,99856.13
2023-01-29T15:23:40.794Z,99854.41
2023-01-29T15:26:15.138Z,99862.16
2023-01-29T15:28:43.533Z,99860.44
2023-01-29T15:31:14.115Z,99857.06
2023-01-29T15:33:44.315Z,99857.06
2023-01-29T15:36:20.305Z,99851.94
2023-01-29T15:38:47.417Z,99839.09
2023-01-29T15:41:22.071Z,99848.56
2023-01-29T15:43:52.339Z,99835.75
2023-01-29T15:46:27.075Z,99831.47
2023-01-29T15:48:56.349Z,99838.31
2023-01-29T15:51:26.142Z,99835.75
2023-01-29T15:54:19.276Z,99841.75
2023-01-29T15:56:48.809Z,99835.78
2023-01-29T15:59:19.606Z,99827.22
2023-01-29T16:01:46.872Z,99834.13
2023-01-29T16:04:19.255Z,99836.63
2023-01-29T16:06:47.834Z,99828.91
2023-01-29T16:09:20.549Z,99822.91
2023-01-29T16:11:47.795Z,99838.31
2023-01-29T16:14:17.624Z,99836.53
2023-01-29T16:16:45.313Z,99830.50
2023-01-29T16:19:30.053Z,99830.50
2023-01-29T16:22:00.751Z,99818.44
2023-01-29T16:24:28.856Z,99818.50
2023-01-29T16:27:01.340Z,99818.50
2023-01-29T16:29:35.576Z,99816.78
2023-01-29T16:32:03.482Z,99816.78
2023-01-29T16:34:39.578Z,99815.06
2023-01-29T16:37:08.899Z,99815.09
2023-01-29T16:39:40.004Z,99814.22
2023-01-29T16:42:13.269Z,99803.06
2023-01-29T16:44:40.978Z,99797.94
2023-01-29T16:47:41.199Z,99792.81
2023-01-29T16:50:40.490Z,99791.16
2023-01-29T16:53:20.937Z,99784.28
2023-01-29T16:55:49.830Z,99784.31
2023-01-29T16:58:19.877Z,99780.03
2023-01-29T17:00:53.586Z,99767.16
2023-01-29T17:03:21.323Z,99767.19
2023-01-29T17:05:48.682Z,99760.31
2023-01-29T17:08:33.494Z,99764.66
2023-01-29T17:11:00.919Z,99755.25
2023-01-29T17:13:37.129Z,99755.25
2023-01-29T17:16:16.430Z,99761.25
2023-01-29T17:18:43.446Z,99744.13
2023-01-29T17:21:10.304Z,99756.19
2023-01-29T17:23:38.101Z,99758.75
2023-01-29T17:26:07.025Z,99753.63
2023-01-29T17:28:34.763Z,99754.47
2023-01-29T17:31:06.564Z,99747.63
2023-01-29T17:33:43.624Z,99739.97
2023-01-29T17:36:15.017Z,99737.41
2023-01-29T17:38:43.524Z,99733.97
2023-01-29T17:41:30.036Z,99734.84
2023-01-29T17:43:58.263Z,99716.84
2023-01-29T17:46:25.663Z,99715.09
2023-01-29T17:48:52.920Z,99708.28
2023-01-29T17:51:22.448Z,99702.25
2023-01-29T17:53:50.818Z,99697.97
2023-01-29T17:56:22.602Z,99691.94
2023-01-29T17:58:50.682Z,99684.25
2023-01-29T18:01:18.472Z,99674.81
2023-01-29T18:03:45.462Z,99670.53
2023-01-29T18:06:22.861Z,99672.22
2023-01-29T18:08:50.028Z,99668.78
2023-01-29T18:11:17.120Z,99663.66
2023-01-29T18:13:44.172Z,99661.94
2023-01-29T18:16:11.342Z,99659.34
2023-01-29T18:18:39.125Z,99658.50
2023-01-29T18:21:08.030Z,99656.81
2023-01-29T18:23:35.160Z,99654.28
2023-01-29T18:26:02.337Z,99656.00
2023-01-29T18:28:30.185Z,99649.16
2023-01-29T18:30:57.459Z,99638.91
2023-01-29T18:33:25.985Z,99636.34
2023-01-29T18:35:55.121Z,99633.72
2023-01-29T18:38:22.731Z,99629.50
2023-01-29T18:40:50.374Z,99631.22
2023-01-29T18:43:17.916Z,99614.91
2023-01-29T18:45:45.071Z,99614.91
2023-01-29T18:48:13.981Z,99608.97
2023-01-29T18:50:41.721Z,99593.53
2023-01-29T18:53:10.201Z,99587.53
2023-01-29T18:55:37.528Z,99582.38
2023-01-29T18:58:26.896Z,99577.25
2023-01-29T19:00:51.912Z,99572.13
2023-01-29T19:03:19.564Z,99582.44
2023-01-29T19:05:46.685Z,99572.09
2023-01-29T19:08:13.790Z,99575.56
2023-01-29T19:10:40.752Z,99566.94
2023-01-29T19:13:08.183Z,99567.78
2023-01-29T19:15:35.427Z,99564.34
2023-01-29T19:18:02.804Z,99560.06
2023-01-29T19:20:30.041Z,99548.91
2023-01-29T19:22:57.199Z,99554.91
2023-01-29T19:25:24.129Z,99553.22
2023-01-29T19:27:51.351Z,99540.28
2023-01-29T19:30:18.581Z,99542.84
2023-01-29T19:32:45.565Z,99534.28
2023-01-29T19:35:13.051Z,99532.56
2023-01-29T19:37:39.913Z,99538.56
2023-01-29T19:40:08.251Z,99520.50
2023-01-29T19:42:37.483Z,99522.19
2023-01-29T19:45:05.582Z,99523.06
2023-01-29T19:47:33.894Z,99509.34
2023-01-29T19:50:00.854Z,99503.31
2023-01-29T19:52:52.266Z,99487.84
2023-01-29T19:55:21.283Z,99486.97
2023-01-29T19:57:48.512Z,99479.25
2023-01-29T20:00:17.580Z,99481.84
2023-01-29T20:02:44.757Z,99484.41
2023-01-29T20:05:13.097Z,99464.66
2023-01-29T20:07:41.211Z,99455.19
2023-01-29T20:10:11.468Z,99441.47
2023-01-29T20:12:38.701Z,99444.91
2023-01-29T20:15:07.430Z,99441.47
2023-01-29T20:17:34.389Z,99442.31
2023-01-29T20:20:01.349Z,99443.19
2023-01-29T20:22:29.924Z,99432.88
2023-01-29T20:24:57.561Z,99425.16
2023-01-29T20:27:25.095Z,99430.31
2023-01-29T20:29:52.929Z,99429.44
2023-01-29T20:32:20.489Z,99426.00
2023-01-29T20:34:52.218Z,99421.69
2023-01-29T20:37:19.859Z,99411.44
2023-01-29T20:39:47.493Z,99395.94
2023-01-29T20:42:14.919Z,99413.97
2023-01-29T20:44:42.293Z,99396.00
2023-01-29T20:47:09.288Z,99405.38
2023-01-29T20:49:38.489Z,99412.25
2023-01-29T20:52:07.654Z,99395.09
2023-01-29T20:54:37.376Z,99395.94
2023-01-29T20:57:05.106Z,99401.94
2023-01-29T20:59:32.494Z,99387.31
2023-01-29T21:01:59.473Z,99381.31
2023-01-29T21:04:27.745Z,99377.88
2023-01-29T21:06:54.883Z,99370.97
2023-01-29T21:09:21.785Z,99368.41
2023-01-29T21:11:48.799Z,99358.97
2023-01-29T21:14:15.887Z,99371.84
2023-01-29T21:16:42.998Z,99351.28
2023-01-29T21:19:12.849Z,99346.97
2023-01-29T21:21:39.834Z,99341.81
2023-01-29T21:24:08.907Z,99348.72
2023-01-29T21:26:38.487Z,99337.59
2023-01-29T21:29:05.777Z,99318.69
2023-01-29T21:31:33.790Z,99334.16
2023-01-29T21:34:00.792Z,99318.72
2023-01-29T21:36:28.009Z,99309.28
2023-01-29T21:38:55.033Z,99287.84
2023-01-29T21:41:42.004Z,99281.00
2023-01-29T21:44:09.132Z,99283.56
2023-01-29T21:46:36.259Z,99283.56
2023-01-29T21:49:04.453Z,99279.28
2023-01-29T21:51:31.313Z,99279.28
2023-01-29T21:53:58.285Z,99273.28
2023-01-29T21:56:25.218Z,99279.28
2023-01-29T21:58:52.207Z,99276.72
2023-01-29T22:01:36.774Z,99260.38
2023-01-29T22:04:07.753Z,99255.25
2023-01-29T22:06:34.685Z,99257.81
2023-01-29T22:09:01.583Z,99250.94
2023-01-29T22:11:28.861Z,99244.09
2023-01-29T22:13:55.689Z,99248.38
2023-01-29T22:16:22.609Z,99244.94
2023-01-29T22:18:49.835Z,99234.66
2023-01-29T22:21:16.672Z,99242.38
2023-01-29T22:23:43.671Z,99226.09
2023-01-29T22:26:10.761Z,99222.66
2023-01-29T22:28:37.746Z,99210.66
2023-01-29T22:31:05.299Z,99197.78
2023-01-29T22:33:33.658Z,99192.66
2023-01-29T22:36:00.907Z,99186.66
2023-01-29T22:38:28.096Z,99180.66
2023-01-29T22:40:56.095Z,99174.66
2023-01-29T22:43:24.293Z,99160.97
2023-01-29T22:45:51.806Z,99158.34
2023-01-29T22:48:18.707Z,99153.22
2023-01-29T22:50:53.863Z,99150.63
2023-01-29T22:53:20.872Z,99136.03
2023-01-29T22:55:55.626Z,99141.13
2023-01-29T22:58:22.600Z,99111.16
2023-01-29T23:00:52.530Z,99108.59
2023-01-29T23:03:19.393Z,99109.41
2023-01-29T23:05:46.407Z,99112.00
2023-01-29T23:08:13.460Z,99097.41
2023-01-29T23:10:40.436Z,99098.28
2023-01-29T23:13:07.341Z,99090.56
2023-01-29T23:15:34.270Z,99080.25
2023-01-29T23:18:01.275Z,99090.53
2023-01-29T23:20:28.328Z,99071.63
2023-01-29T23:22:55.581Z,99071.63
2023-01-29T23:25:22.536Z,99055.31
2023-01-29T23:27:49.465Z,99052.75
2023-01-29T23:30:16.903Z,99047.59
2023-01-29T23:32:44.027Z,99038.19
2023-01-29T23:35:10.876Z,99040.72
2023-01-29T23:37:37.710Z,99024.44
2023-01-29T23:40:05.131Z,99028.72
2023-01-29T23:42:32.009Z,99017.59
2023-01-29T23:44:58.840Z,99011.59
2023-01-29T23:47:25.916Z,99009.00
2023-01-29T23:49:53.279Z,99009.88
2023-01-29T23:52:20.399Z,99014.16
2023-01-29T23:54:47.246Z,99004.72
2023-01-29T23:57:14.211Z,99009.84
2023-01-29T23:59:41.241Z,99004.69
